createdAt,value
2018-12-24T00:00:32.967Z,30.9
2018-12-24T00:01:32.912Z,31.1
2018-12-24T00:02:32.874Z,31.5
2018-12-24T00:03:32.874Z,31.8
2018-12-24T00:04:32.889Z,31.9
2018-12-24T00:05:32.929Z,31.9
2018-12-24T00:06:32.882Z,32
2018-12-24T00:07:32.938Z,32.4
2018-12-24T00:08:32.861Z,32.2
2018-12-24T00:09:32.955Z,32.2
2018-12-24T00:10:32.884Z,32
2018-12-24T00:11:32.900Z,32.2
2018-12-24T00:12:32.868Z,31.9
2018-12-24T00:13:32.856Z,31.7
2018-12-24T00:14:32.962Z,31.8
2018-12-24T00:15:32.870Z,31.4
2018-12-24T00:16:32.874Z,31.1
2018-12-24T00:17:32.889Z,30.7
2018-12-24T00:18:32.857Z,30.4
2018-12-24T00:19:32.867Z,30.3
2018-12-24T00:20:32.855Z,30.1
2018-12-24T00:21:32.963Z,29.9
2018-12-24T00:22:32.864Z,29.7
2018-12-24T00:23:32.881Z,29.6
2018-12-24T00:24:32.849Z,29.5
2018-12-24T00:25:32.874Z,29.6
2018-12-24T00:26:32.861Z,29.5
2018-12-24T00:27:32.950Z,29.6
2018-12-24T00:28:32.856Z,29.9
2018-12-24T00:29:32.859Z,30.1
2018-12-24T00:30:32.864Z,30.1
2018-12-24T00:31:32.933Z,29.9
2018-12-24T00:32:32.890Z,29.6
2018-12-24T00:33:32.858Z,29.3
2018-12-24T00:34:32.853Z,29.7
2018-12-24T00:35:32.934Z,29.8
2018-12-24T00:36:32.864Z,29.7
2018-12-24T00:37:32.855Z,29.4
2018-12-24T00:38:32.917Z,29.1
2018-12-24T00:39:32.883Z,28.8
2018-12-24T00:40:32.871Z,28.5
2018-12-24T00:41:32.946Z,27.9
2018-12-24T00:42:32.858Z,27.4
2018-12-24T00:43:32.860Z,27.3
2018-12-24T00:44:32.859Z,27
2018-12-24T00:45:32.852Z,27
2018-12-24T00:46:32.939Z,26.7
2018-12-24T00:47:32.866Z,26.6
2018-12-24T00:48:32.863Z,26.7
2018-12-24T00:49:32.857Z,26.9
2018-12-24T00:50:32.870Z,27
2018-12-24T00:51:32.922Z,27.3
2018-12-24T00:52:32.873Z,27.8
2018-12-24T00:53:32.935Z,28.1
2018-12-24T00:54:32.916Z,28.6
2018-12-24T00:55:32.936Z,29.2
2018-12-24T00:56:32.852Z,29.7
2018-12-24T00:57:32.883Z,30.3
2018-12-24T00:58:32.862Z,30.7
2018-12-24T00:59:32.870Z,31.1
2018-12-24T01:00:32.926Z,31.3
2018-12-24T01:01:32.854Z,31.3
2018-12-24T01:02:32.835Z,31.4
2018-12-24T01:03:32.848Z,31.1
2018-12-24T01:04:32.920Z,30.7
2018-12-24T01:05:32.855Z,30.4
2018-12-24T01:06:32.844Z,30.2
2018-12-24T01:07:32.829Z,30.2
2018-12-24T01:08:32.842Z,29.8
2018-12-24T01:09:32.954Z,30
2018-12-24T01:10:32.841Z,29.7
2018-12-24T01:11:32.844Z,29.4
2018-12-24T01:12:32.842Z,29
2018-12-24T01:13:32.834Z,28.6
2018-12-24T01:14:32.870Z,28.4
2018-12-24T01:15:32.918Z,27.9
2018-12-24T01:16:32.864Z,27.5
2018-12-24T01:17:32.849Z,27
2018-12-24T01:18:32.825Z,26.8
2018-12-24T01:19:32.835Z,26.6
2018-12-24T01:20:33.871Z,26.3
2018-12-24T01:21:32.842Z,26.5
2018-12-24T01:22:32.855Z,26.4
2018-12-24T01:23:32.858Z,26.3
2018-12-24T01:24:32.884Z,26.2
2018-12-24T01:25:32.838Z,26.8
2018-12-24T01:26:32.840Z,27.5
2018-12-24T01:27:32.838Z,28.1
2018-12-24T01:28:32.838Z,28.8
2018-12-24T01:29:32.901Z,29.2
2018-12-24T01:30:32.834Z,30
2018-12-24T01:31:32.852Z,30
2018-12-24T01:32:32.845Z,30.2
2018-12-24T01:33:32.833Z,30.8
2018-12-24T01:34:32.885Z,31.1
2018-12-24T01:35:32.815Z,31
2018-12-24T01:36:32.838Z,31
2018-12-24T01:37:32.900Z,31
2018-12-24T01:38:32.827Z,31.3
2018-12-24T01:39:32.824Z,31.4
2018-12-24T01:40:32.813Z,31.8
2018-12-24T01:41:32.901Z,32.1
2018-12-24T01:42:33.425Z,32.2
2018-12-24T01:43:32.828Z,32
2018-12-24T01:44:32.822Z,31.9
2018-12-24T01:45:32.807Z,32.1
2018-12-24T01:46:32.891Z,32.3
2018-12-24T01:47:32.828Z,33.1
2018-12-24T01:48:32.829Z,33.4
2018-12-24T01:49:32.825Z,33.3
2018-12-24T01:50:32.823Z,33.1
2018-12-24T01:51:32.892Z,32.9
2018-12-24T01:52:32.834Z,32.8
2018-12-24T01:53:32.820Z,33.2
2018-12-24T01:54:32.824Z,33.2
2018-12-24T01:55:32.859Z,34.1
2018-12-24T01:56:32.873Z,34.5
2018-12-24T01:57:32.823Z,35
2018-12-24T01:58:32.814Z,35.2
2018-12-24T01:59:32.888Z,35.1
2018-12-24T02:00:32.810Z,35.8
2018-12-24T02:01:32.820Z,36.4
2018-12-24T02:02:32.954Z,36.6
2018-12-24T02:03:32.817Z,36.5
2018-12-24T02:04:32.896Z,37.3
2018-12-24T02:05:32.818Z,37.1
2018-12-24T02:06:32.894Z,37.3
2018-12-24T02:07:32.799Z,37.5
2018-12-24T02:08:32.880Z,38
2018-12-24T02:09:32.824Z,38.1
2018-12-24T02:10:32.821Z,38.3
2018-12-24T02:11:32.825Z,38.5
2018-12-24T02:12:32.828Z,38.5
2018-12-24T02:13:32.798Z,38.2
2018-12-24T02:14:32.914Z,37.9
2018-12-24T02:15:32.813Z,37.4
2018-12-24T02:16:32.806Z,36.8
2018-12-24T02:17:32.816Z,36.3
2018-12-24T02:18:32.793Z,35.6
2018-12-24T02:19:32.888Z,35
2018-12-24T02:20:32.809Z,34.2
2018-12-24T02:21:32.804Z,33.7
2018-12-24T02:22:32.820Z,33.5
2018-12-24T02:23:32.792Z,33
2018-12-24T02:24:32.863Z,32
2018-12-24T02:25:32.805Z,31.6
2018-12-24T02:26:32.808Z,31.5
2018-12-24T02:27:32.815Z,31.3
2018-12-24T02:28:32.796Z,31.1
2018-12-24T02:29:32.872Z,31.6
2018-12-24T02:30:32.855Z,31.8
2018-12-24T02:31:32.886Z,32.7
2018-12-24T02:32:32.795Z,33.4
2018-12-24T02:33:33.053Z,34.3
2018-12-24T02:34:32.784Z,35.2
2018-12-24T02:35:32.785Z,36.9
2018-12-24T02:36:32.795Z,38.3
2018-12-24T02:37:32.870Z,38.9
2018-12-24T02:38:32.797Z,40.2
2018-12-24T02:39:32.796Z,41.2
2018-12-24T02:40:32.784Z,41.9
2018-12-24T02:41:32.794Z,42.4
2018-12-24T02:42:32.883Z,43
2018-12-24T02:43:32.808Z,43.3
2018-12-24T02:44:32.795Z,44
2018-12-24T02:45:32.781Z,44.7
2018-12-24T02:46:32.811Z,45.1
2018-12-24T02:47:32.866Z,45.9
2018-12-24T02:48:32.860Z,46.3
2018-12-24T02:49:32.975Z,46.9
2018-12-24T02:50:32.799Z,47.2
2018-12-24T02:51:32.781Z,47.5
2018-12-24T02:52:32.790Z,47.5
2018-12-24T02:53:32.794Z,48.5
2018-12-24T02:54:32.858Z,48.6
2018-12-24T02:55:32.791Z,49.3
2018-12-24T02:56:32.832Z,49.6
2018-12-24T02:57:32.809Z,49.5
2018-12-24T02:58:32.778Z,49.8
2018-12-24T02:59:32.787Z,50.1
2018-12-24T03:00:32.790Z,50.1
2018-12-24T03:01:32.848Z,49.9
2018-12-24T03:02:32.774Z,50
2018-12-24T03:03:32.797Z,49.5
2018-12-24T03:04:32.834Z,49
2018-12-24T03:05:32.787Z,49.1
2018-12-24T03:06:32.776Z,48.8
2018-12-24T03:07:32.842Z,48.1
2018-12-24T03:08:32.771Z,47.6
2018-12-24T03:09:32.769Z,47.3
2018-12-24T03:10:32.780Z,46.4
2018-12-24T03:11:32.777Z,46.3
2018-12-24T03:12:32.843Z,46.6
2018-12-24T03:13:32.756Z,46.4
2018-12-24T03:14:32.769Z,46.5
2018-12-24T03:15:32.776Z,46.9
2018-12-24T03:16:32.840Z,47
2018-12-24T03:17:32.830Z,46.7
2018-12-24T03:18:32.764Z,46.9
2018-12-24T03:19:32.775Z,47.2
2018-12-24T03:20:32.770Z,47
2018-12-24T03:21:32.776Z,47.4
2018-12-24T03:22:32.845Z,48.1
2018-12-24T03:23:32.778Z,49
2018-12-24T03:24:32.754Z,49.7
2018-12-24T03:25:32.790Z,49.9
2018-12-24T03:26:32.769Z,49.8
2018-12-24T03:27:32.846Z,50.1
2018-12-24T03:28:32.768Z,50.4
2018-12-24T03:29:32.749Z,50.1
2018-12-24T03:30:32.828Z,50.3
2018-12-24T03:31:32.838Z,50.3
2018-12-24T03:32:32.780Z,49.9
2018-12-24T03:33:32.832Z,49.9
2018-12-24T03:34:32.750Z,50.3
2018-12-24T03:35:32.762Z,50.7
2018-12-24T03:36:32.784Z,51.3
2018-12-24T03:37:32.845Z,51.4
2018-12-24T03:38:32.768Z,51.9
2018-12-24T03:39:32.840Z,51.6
2018-12-24T03:40:32.754Z,51.9
2018-12-24T03:41:32.754Z,52.2
2018-12-24T03:42:32.756Z,52.3
2018-12-24T03:43:32.753Z,52.2
2018-12-24T03:44:32.829Z,52.3
2018-12-24T03:45:32.849Z,52.1
2018-12-24T03:46:32.762Z,52.3
2018-12-24T03:47:32.756Z,52.1
2018-12-24T03:48:32.757Z,52
2018-12-24T03:49:32.755Z,52
2018-12-24T03:50:32.752Z,52.5
2018-12-24T03:51:32.753Z,52.4
2018-12-24T03:52:32.761Z,52.5
2018-12-24T03:53:32.755Z,53
2018-12-24T03:54:32.824Z,53.5
2018-12-24T03:55:32.752Z,53.4
2018-12-24T03:56:32.742Z,53.7
2018-12-24T03:57:32.749Z,53.3
2018-12-24T03:58:32.756Z,53.6
2018-12-24T03:59:32.820Z,54.1
2018-12-24T04:00:32.751Z,54.4
2018-12-24T04:01:32.756Z,54.4
2018-12-24T04:02:32.735Z,54.6
2018-12-24T04:03:32.748Z,54.3
2018-12-24T04:04:32.816Z,54.3
2018-12-24T04:05:32.745Z,54
2018-12-24T04:06:32.750Z,53.5
2018-12-24T04:07:32.739Z,53.2
2018-12-24T04:08:32.803Z,53.2
2018-12-24T04:09:32.823Z,53.3
2018-12-24T04:10:32.761Z,54.5
2018-12-24T04:11:32.741Z,54.4
2018-12-24T04:12:32.721Z,53.8
2018-12-24T04:13:32.746Z,53.4
2018-12-24T04:14:32.812Z,53.7
2018-12-24T04:15:32.747Z,54.5
2018-12-24T04:16:32.811Z,54
2018-12-24T04:17:32.825Z,53.7
2018-12-24T04:18:32.746Z,53
2018-12-24T04:19:32.740Z,53
2018-12-24T04:20:32.811Z,52.9
2018-12-24T04:21:32.744Z,53
2018-12-24T04:22:32.808Z,52.4
2018-12-24T04:23:32.728Z,52.1
2018-12-24T04:24:32.750Z,51.7
2018-12-24T04:25:32.801Z,50.7
2018-12-24T04:26:32.747Z,50
2018-12-24T04:27:41.334Z,49.4
2018-12-24T04:28:32.804Z,49
2018-12-24T04:29:32.796Z,48.4
2018-12-24T04:30:32.739Z,47.8
2018-12-24T04:31:32.726Z,47.4
2018-12-24T04:32:32.731Z,47.2
2018-12-24T04:33:32.811Z,46.3
2018-12-24T04:34:32.805Z,46
2018-12-24T04:35:32.734Z,45.8
2018-12-24T04:36:32.806Z,45.4
2018-12-24T04:37:32.736Z,45.3
2018-12-24T04:38:32.857Z,45.1
2018-12-24T04:39:32.725Z,45
2018-12-24T04:40:32.796Z,44.6
2018-12-24T04:41:32.728Z,45
2018-12-24T04:42:32.726Z,45.1
2018-12-24T04:43:32.781Z,46.6
2018-12-24T04:44:32.790Z,46.9
2018-12-24T04:45:32.715Z,47.6
2018-12-24T04:46:32.741Z,47.1
2018-12-24T04:47:32.780Z,47.1
2018-12-24T04:48:32.738Z,47.6
2018-12-24T04:49:32.725Z,47
2018-12-24T04:50:32.787Z,47.4
2018-12-24T04:51:32.707Z,47.4
2018-12-24T04:52:32.724Z,47.8
2018-12-24T04:53:32.805Z,47.6
2018-12-24T04:54:32.733Z,47.2
2018-12-24T04:55:32.788Z,46.8
2018-12-24T04:56:32.706Z,47.1
2018-12-24T04:57:32.768Z,48.6
2018-12-24T04:58:32.719Z,48.7
2018-12-24T04:59:32.793Z,48.8
2018-12-24T05:00:32.721Z,48.7
2018-12-24T05:01:32.801Z,48.3
2018-12-24T05:02:32.698Z,48
2018-12-24T05:03:32.715Z,47.4
2018-12-24T05:04:32.730Z,46.8
2018-12-24T05:05:32.709Z,46.6
2018-12-24T05:06:32.802Z,45.9
2018-12-24T05:07:32.696Z,45.1
2018-12-24T05:08:32.709Z,44.7
2018-12-24T05:09:32.721Z,44.5
2018-12-24T05:10:32.717Z,43.9
2018-12-24T05:11:32.779Z,44.4
2018-12-24T05:12:32.716Z,44.3
2018-12-24T05:13:40.635Z,43.7
2018-12-24T05:14:32.714Z,43.6
2018-12-24T05:15:32.704Z,43.2
2018-12-24T05:16:32.778Z,42.9
2018-12-24T05:17:32.723Z,42.7
2018-12-24T05:18:32.705Z,42.2
2018-12-24T05:19:32.703Z,42.7
2018-12-24T05:20:32.760Z,42.9
2018-12-24T05:21:32.787Z,42.4
2018-12-24T05:22:32.707Z,42.2
2018-12-24T05:23:32.697Z,42.1
2018-12-24T05:24:32.775Z,41.9
2018-12-24T05:25:32.787Z,41.8
2018-12-24T05:26:32.708Z,41.8
2018-12-24T05:27:32.704Z,41.2
2018-12-24T05:28:32.697Z,41.4
2018-12-24T05:29:32.695Z,41.1
2018-12-24T05:30:32.771Z,41.4
2018-12-24T05:31:32.695Z,41.3
2018-12-24T05:32:32.721Z,41.4
2018-12-24T05:33:32.800Z,41.7
2018-12-24T05:34:32.695Z,41.7
2018-12-24T05:35:32.751Z,41.5
2018-12-24T05:36:32.696Z,41.5
2018-12-24T05:37:32.705Z,41.5
2018-12-24T05:38:32.687Z,41
2018-12-24T05:39:32.700Z,40.9
2018-12-24T05:40:32.740Z,40.8
2018-12-24T05:41:32.713Z,40.7
2018-12-24T05:42:32.701Z,40.8
2018-12-24T05:43:32.776Z,40.9
2018-12-24T05:44:32.708Z,41
2018-12-24T05:45:32.680Z,41.2
2018-12-24T05:46:32.687Z,41.2
2018-12-24T05:47:32.691Z,41.2
2018-12-24T05:48:32.772Z,41
2018-12-24T05:49:32.692Z,40.4
2018-12-24T05:50:32.714Z,39.7
2018-12-24T05:51:32.677Z,39.3
2018-12-24T05:52:32.693Z,39.2
2018-12-24T05:53:32.760Z,39.8
2018-12-24T05:54:32.690Z,40
2018-12-24T05:55:32.704Z,39.9
2018-12-24T05:56:32.688Z,39.3
2018-12-24T05:57:32.694Z,39.7
2018-12-24T05:58:32.742Z,39.3
2018-12-24T05:59:32.756Z,38.8
2018-12-24T06:00:32.686Z,38.7
2018-12-24T06:01:32.675Z,38.7
2018-12-24T06:02:32.674Z,38.6
2018-12-24T06:03:32.685Z,38.6
2018-12-24T06:04:32.742Z,38
2018-12-24T06:05:32.695Z,37.7
2018-12-24T06:06:32.688Z,38
2018-12-24T06:07:32.683Z,38.8
2018-12-24T06:08:32.679Z,39.5
2018-12-24T06:09:32.756Z,39.8
2018-12-24T06:10:32.902Z,39.7
2018-12-24T06:11:32.673Z,39.6
2018-12-24T06:12:32.664Z,40.4
2018-12-24T06:13:32.742Z,40.8
2018-12-24T06:14:32.688Z,40.7
2018-12-24T06:15:32.742Z,40.8
2018-12-24T06:16:32.680Z,41.3
2018-12-24T06:17:32.677Z,41.5
2018-12-24T06:18:32.735Z,41.9
2018-12-24T06:19:32.764Z,42.1
2018-12-24T06:20:37.589Z,42.5
2018-12-24T06:21:32.694Z,42.8
2018-12-24T06:22:32.679Z,43.1
2018-12-24T06:23:32.736Z,43.6
2018-12-24T06:24:32.665Z,43.2
2018-12-24T06:25:32.676Z,43.7
2018-12-24T06:26:32.746Z,43.6
2018-12-24T06:27:32.676Z,43.3
2018-12-24T06:28:32.667Z,43.5
2018-12-24T06:29:32.667Z,44
2018-12-24T06:30:32.754Z,44.5
2018-12-24T06:31:32.673Z,45
2018-12-24T06:32:32.678Z,45.8
2018-12-24T06:33:32.671Z,46.2
2018-12-24T06:34:32.748Z,46
2018-12-24T06:35:32.662Z,46.3
2018-12-24T06:36:32.707Z,46.9
2018-12-24T06:37:32.685Z,47.4
2018-12-24T06:38:32.670Z,47.8
2018-12-24T06:39:32.754Z,47.9
2018-12-24T06:40:32.663Z,48.2
2018-12-24T06:41:32.664Z,48.6
2018-12-24T06:42:32.656Z,48.2
2018-12-24T06:43:32.671Z,47.6
2018-12-24T06:44:32.744Z,48.2
2018-12-24T06:45:32.672Z,48.5
2018-12-24T06:46:32.674Z,48.4
2018-12-24T06:47:32.662Z,48.6
2018-12-24T06:48:32.675Z,48.3
2018-12-24T06:49:32.720Z,48.2
2018-12-24T06:50:32.746Z,47.9
2018-12-24T06:51:32.649Z,47.3
2018-12-24T06:52:32.662Z,47.3
2018-12-24T06:53:32.661Z,46.7
2018-12-24T06:54:32.669Z,45.9
2018-12-24T06:55:32.790Z,45.7
2018-12-24T06:56:32.650Z,45.5
2018-12-24T06:57:32.653Z,45.1
2018-12-24T06:58:32.663Z,44.7
2018-12-24T06:59:32.659Z,44
2018-12-24T07:00:32.668Z,43.5
2018-12-24T07:01:32.640Z,42.7
2018-12-24T07:02:32.707Z,42.3
2018-12-24T07:03:32.722Z,42.1
2018-12-24T07:04:32.646Z,42.1
2018-12-24T07:05:32.649Z,41.7
2018-12-24T07:06:32.646Z,41.1
2018-12-24T07:07:32.705Z,40.6
2018-12-24T07:08:32.704Z,39.7
2018-12-24T07:09:32.668Z,38.8
2018-12-24T07:10:32.655Z,37.9
2018-12-24T07:11:32.643Z,37.1
2018-12-24T07:12:32.689Z,36.5
2018-12-24T07:13:32.641Z,36
2018-12-24T07:14:32.718Z,35.5
2018-12-24T07:15:32.641Z,35.1
2018-12-24T07:16:32.659Z,34.7
2018-12-24T07:17:32.644Z,33.9
2018-12-24T07:18:32.702Z,33.1
2018-12-24T07:19:32.657Z,32.2
2018-12-24T07:20:42.532Z,31.3
2018-12-24T07:21:32.659Z,30.3
2018-12-24T07:22:32.626Z,29.2
2018-12-24T07:23:32.699Z,28.6
2018-12-24T07:24:32.623Z,28.1
2018-12-24T07:25:32.790Z,27.7
2018-12-24T07:26:32.644Z,27.4
2018-12-24T07:27:32.700Z,27
2018-12-24T07:28:32.634Z,26.9
2018-12-24T07:29:32.626Z,26.6
2018-12-24T07:30:32.716Z,26.2
2018-12-24T07:31:32.653Z,25.6
2018-12-24T07:32:32.639Z,25.1
2018-12-24T07:33:32.707Z,24.4
2018-12-24T07:34:32.920Z,23.9
2018-12-24T07:35:32.634Z,23.6
2018-12-24T07:36:32.630Z,23.5
2018-12-24T07:37:32.622Z,23.3
2018-12-24T07:38:32.647Z,23.1
2018-12-24T07:39:32.715Z,22.8
2018-12-24T07:40:33.010Z,22.6
2018-12-24T07:41:32.645Z,22.3
2018-12-24T07:42:32.685Z,22.1
2018-12-24T07:43:32.632Z,21.8
2018-12-24T07:44:32.649Z,21.7
2018-12-24T07:45:32.632Z,21.5
2018-12-24T07:46:32.645Z,21.2
2018-12-24T07:47:32.703Z,20.7
2018-12-24T07:48:32.628Z,20.4
2018-12-24T07:49:32.668Z,20
2018-12-24T07:50:32.616Z,19.7
2018-12-24T07:51:32.688Z,19.6
2018-12-24T07:52:32.690Z,19.3
2018-12-24T07:53:32.621Z,19.3
2018-12-24T07:54:32.620Z,19.4
2018-12-24T07:55:32.645Z,19.7
2018-12-24T07:56:32.615Z,20.5
2018-12-24T07:57:32.673Z,20.5
2018-12-24T07:58:32.673Z,20.5
2018-12-24T07:59:32.695Z,20.5
2018-12-24T08:00:32.631Z,20.7
2018-12-24T08:01:32.618Z,21.4
2018-12-24T08:02:32.616Z,22.7
2018-12-24T08:03:32.633Z,23.5
2018-12-24T08:04:32.844Z,24.8
2018-12-24T08:06:36.081Z,3.8
2018-12-24T08:07:35.768Z,7.6
2018-12-24T08:08:40.414Z,3.5
2018-12-24T08:09:40.304Z,6.7
2018-12-24T08:10:40.680Z,9.8
2018-12-24T08:11:40.471Z,12
2018-12-24T08:12:40.303Z,14.1
2018-12-24T08:13:42.277Z,15.9
2018-12-24T08:14:40.361Z,17.5
2018-12-24T08:15:40.508Z,19
2018-12-24T08:16:40.312Z,20.9
2018-12-24T08:17:40.052Z,22.1
2018-12-24T08:18:40.222Z,23.3
2018-12-24T08:19:40.495Z,24.2
2018-12-24T08:20:40.425Z,25
2018-12-24T08:21:40.496Z,25.5
2018-12-24T08:22:40.440Z,26.1
2018-12-24T08:23:40.018Z,26.5
2018-12-24T08:24:40.198Z,26.9
2018-12-24T08:25:40.557Z,26.9
2018-12-24T08:26:40.515Z,26.6
2018-12-24T08:27:41.084Z,26.3
2018-12-24T08:28:40.569Z,26.1
2018-12-24T08:29:40.073Z,25.8
2018-12-24T08:30:40.423Z,25.9
2018-12-24T08:31:40.593Z,25.9
2018-12-24T08:32:40.317Z,25.7
2018-12-24T08:33:40.000Z,25.6
2018-12-24T08:34:40.310Z,25
2018-12-24T08:35:40.126Z,25.2
2018-12-24T08:36:40.030Z,25.4
2018-12-24T08:37:40.067Z,25.7
2018-12-24T08:38:40.011Z,26
2018-12-24T08:39:40.068Z,26.4
2018-12-24T08:40:40.077Z,26.9
2018-12-24T08:41:40.020Z,27.3
2018-12-24T08:42:40.014Z,27.7
2018-12-24T08:43:40.026Z,28.3
2018-12-24T08:44:41.804Z,29.4
2018-12-24T08:45:40.063Z,30.3
2018-12-24T08:46:40.016Z,30.8
2018-12-24T08:47:40.019Z,31
2018-12-24T08:48:40.027Z,31
2018-12-24T08:49:40.951Z,31.5
2018-12-24T08:50:40.269Z,31.7
2018-12-24T08:51:40.061Z,32
2018-12-24T08:52:40.337Z,32
2018-12-24T08:53:40.641Z,32.3
2018-12-24T08:54:40.055Z,33
2018-12-24T08:55:40.227Z,33.3
2018-12-24T08:56:40.611Z,33.6
2018-12-24T08:57:40.629Z,34.7
2018-12-24T08:58:40.058Z,35.5
2018-12-24T08:59:39.986Z,35.6
2018-12-24T09:00:44.448Z,3.4
2018-12-24T09:01:43.962Z,6.2
2018-12-24T09:02:44.553Z,8.4
2018-12-24T09:03:43.970Z,10.7
2018-12-24T09:04:44.007Z,13.2
2018-12-24T09:05:43.888Z,15.2
2018-12-24T09:06:44.097Z,16.9
2018-12-24T09:07:43.441Z,18.5
2018-12-24T09:08:43.888Z,20
2018-12-24T09:09:43.496Z,21.4
2018-12-24T09:10:43.959Z,22.1
2018-12-24T09:11:43.912Z,22.6
2018-12-24T09:12:43.464Z,23.1
2018-12-24T09:13:43.464Z,23
2018-12-24T09:14:50.157Z,22.9
2018-12-24T09:15:43.436Z,22.9
2018-12-24T09:16:43.448Z,23
2018-12-24T09:17:43.433Z,22.8
2018-12-24T09:18:43.459Z,22.1
2018-12-24T09:19:43.449Z,21.6
2018-12-24T09:20:43.455Z,21
2018-12-24T09:21:43.525Z,20.8
2018-12-24T09:22:43.448Z,20.7
2018-12-24T09:23:43.446Z,20.2
2018-12-24T09:24:43.437Z,19.9
2018-12-24T09:25:43.446Z,20
2018-12-24T09:26:43.495Z,19.4
2018-12-24T09:27:43.516Z,18.8
2018-12-24T09:28:43.482Z,18.2
2018-12-24T09:29:43.431Z,18.9
2018-12-24T09:30:43.439Z,19.3
2018-12-24T09:31:43.457Z,19.8
2018-12-24T09:32:43.441Z,20.1
2018-12-24T09:33:43.512Z,20.5
2018-12-24T09:34:43.425Z,20.7
2018-12-24T09:35:43.448Z,20.8
2018-12-24T09:36:43.493Z,20.9
2018-12-24T09:37:43.426Z,21.1
2018-12-24T09:38:43.489Z,21
2018-12-24T09:39:43.510Z,21.6
2018-12-24T09:40:43.440Z,22.2
2018-12-24T09:41:43.454Z,22
2018-12-24T09:42:43.443Z,21.7
2018-12-24T09:43:43.513Z,21.9
2018-12-24T09:44:43.454Z,21.5
2018-12-24T09:45:43.491Z,21.9
2018-12-24T09:46:43.461Z,21.9
2018-12-24T09:47:46.568Z,22
2018-12-24T09:48:43.451Z,22.2
2018-12-24T09:49:43.505Z,22.2
2018-12-24T09:50:43.421Z,22.7
2018-12-24T09:51:43.420Z,23
2018-12-24T09:52:43.431Z,22.2
2018-12-24T09:53:43.440Z,22.9
2018-12-24T09:54:43.508Z,23.7
2018-12-24T09:55:43.441Z,24.4
2018-12-24T09:56:43.442Z,24.3
2018-12-24T09:57:43.497Z,24.7
2018-12-24T09:58:43.442Z,24.6
2018-12-24T09:59:43.431Z,24.6
2018-12-24T10:00:43.558Z,24.9
2018-12-24T10:01:43.445Z,24.9
2018-12-24T10:02:43.429Z,25.2
2018-12-24T10:03:43.468Z,25.5
2018-12-24T10:04:43.432Z,25.6
2018-12-24T10:05:43.507Z,25.7
2018-12-24T10:06:43.432Z,25.7
2018-12-24T10:07:43.493Z,25.6
2018-12-24T10:08:43.422Z,25.2
2018-12-24T10:09:43.430Z,25.3
2018-12-24T10:10:43.431Z,25.2
2018-12-24T10:11:43.494Z,25.7
2018-12-24T10:12:43.424Z,26.3
2018-12-24T10:13:43.438Z,26.6
2018-12-24T10:14:43.500Z,27.1
2018-12-24T10:15:44.705Z,27.4
2018-12-24T10:16:43.499Z,27.7
2018-12-24T10:17:43.421Z,27.7
2018-12-24T10:18:43.408Z,27.4
2018-12-24T10:19:43.450Z,27.3
2018-12-24T10:20:43.424Z,27
2018-12-24T10:21:43.542Z,26.6
2018-12-24T10:22:43.440Z,26.1
2018-12-24T10:23:43.480Z,25.5
2018-12-24T10:24:43.422Z,24.9
2018-12-24T10:25:43.418Z,24.2
2018-12-24T10:26:43.435Z,23.6
2018-12-24T10:27:43.440Z,22.8
2018-12-24T10:28:43.478Z,22.9
2018-12-24T10:29:43.403Z,22.8
2018-12-24T10:30:43.418Z,22.2
2018-12-24T10:31:43.418Z,21.8
2018-12-24T10:32:43.499Z,21.8
2018-12-24T10:33:43.418Z,21.7
2018-12-24T10:34:43.470Z,21.3
2018-12-24T10:35:43.416Z,20.9
2018-12-24T10:36:43.543Z,20.5
2018-12-24T10:37:43.426Z,20.3
2018-12-24T10:38:43.431Z,20.2
2018-12-24T10:39:43.490Z,20.3
2018-12-24T10:40:43.413Z,19.9
2018-12-24T10:41:43.407Z,19.7
2018-12-24T10:42:43.447Z,19.5
2018-12-24T10:43:43.417Z,19.4
2018-12-24T10:44:43.407Z,18.5
2018-12-24T10:45:43.452Z,17.8
2018-12-24T10:46:43.539Z,17.3
2018-12-24T10:47:43.415Z,16.8
2018-12-24T10:48:43.411Z,16.4
2018-12-24T10:49:43.414Z,15.8
2018-12-24T10:50:43.397Z,15.3
2018-12-24T10:51:43.490Z,14.5
2018-12-24T10:52:43.418Z,13.9
2018-12-24T10:53:43.404Z,13.2
2018-12-24T10:54:43.422Z,12.7
2018-12-24T10:55:43.419Z,12.5
2018-12-24T10:56:43.469Z,12.4
2018-12-24T10:57:43.475Z,11.8
2018-12-24T10:58:43.479Z,11.2
2018-12-24T10:59:43.468Z,10.2
2018-12-24T11:00:43.467Z,9.6
2018-12-24T11:01:44.668Z,8.7
2018-12-24T11:02:43.406Z,7.9
2018-12-24T11:03:43.417Z,7.2
2018-12-24T11:04:43.415Z,6.5
2018-12-24T11:05:43.411Z,5.9
2018-12-24T11:06:43.393Z,6.3
2018-12-24T11:07:43.475Z,6.8
2018-12-24T11:08:43.398Z,7.7
2018-12-24T11:09:43.418Z,9.5
2018-12-24T11:10:43.470Z,11.6
2018-12-24T11:11:43.424Z,13.8
2018-12-24T11:12:43.464Z,16
2018-12-24T11:13:43.386Z,18.2
2018-12-24T11:15:47.080Z,2.9
2018-12-24T11:16:46.231Z,5.3
2018-12-24T11:17:47.332Z,7.5
2018-12-24T11:18:46.231Z,10
2018-12-24T11:19:47.093Z,12.1
2018-12-24T11:20:47.391Z,14.1
2018-12-24T11:21:46.229Z,15.4
2018-12-24T11:22:47.078Z,16.2
2018-12-24T11:23:46.328Z,17.1
2018-12-24T11:24:46.642Z,17.8
2018-12-24T11:25:46.228Z,17.6
2018-12-24T11:26:46.227Z,17.1
2018-12-24T11:27:46.426Z,16.6
2018-12-24T11:28:46.347Z,16.3
2018-12-24T11:29:46.625Z,16
2018-12-24T11:30:46.233Z,15.9
2018-12-24T11:31:47.704Z,16.3
2018-12-24T11:32:47.000Z,16.3
2018-12-24T11:33:46.224Z,16.6
2018-12-24T11:34:46.224Z,17.5
2018-12-24T11:35:46.214Z,18.4
2018-12-24T11:36:46.290Z,19.3
2018-12-24T11:37:46.230Z,20.1
2018-12-24T11:38:46.284Z,21.2
2018-12-24T11:39:46.230Z,22.1
2018-12-24T11:40:46.237Z,22.8
2018-12-24T11:41:46.233Z,23.9
2018-12-24T11:42:46.224Z,26
2018-12-24T11:43:46.217Z,27.6
2018-12-24T11:44:46.227Z,28.8
2018-12-24T11:45:46.290Z,31
2018-12-24T11:46:46.230Z,32.9
2018-12-24T11:47:46.244Z,34.3
2018-12-24T11:48:46.228Z,35.2
2018-12-24T11:49:46.315Z,36
2018-12-24T11:50:46.216Z,36.7
2018-12-24T11:51:46.281Z,37.2
2018-12-24T11:52:46.249Z,37.9
2018-12-24T11:53:46.301Z,38.7
2018-12-24T11:54:46.231Z,39
2018-12-24T11:55:46.235Z,39.9
2018-12-24T11:56:46.297Z,40.3
2018-12-24T11:57:47.378Z,42.4
2018-12-24T11:58:46.273Z,44.1
2018-12-24T11:59:46.225Z,46.5
2018-12-24T12:00:46.227Z,48.2
2018-12-24T12:01:46.281Z,49.1
2018-12-24T12:02:46.229Z,50.3
2018-12-24T12:03:46.222Z,51.1
2018-12-24T12:04:46.309Z,51.3
2018-12-24T12:05:46.241Z,51.1
2018-12-24T12:06:46.211Z,50.5
2018-12-24T12:07:46.224Z,49.2
2018-12-24T12:08:46.237Z,49.5
2018-12-24T12:09:46.281Z,50
2018-12-24T12:10:46.221Z,50.4
2018-12-24T12:11:46.290Z,51.7
2018-12-24T12:12:46.239Z,51.8
2018-12-24T12:13:46.294Z,53.2
2018-12-24T12:14:46.288Z,54.5
2018-12-24T12:15:46.224Z,55.6
2018-12-24T12:16:46.207Z,56.7
2018-12-24T12:17:46.230Z,57.4
2018-12-24T12:18:46.222Z,57.6
2018-12-24T12:19:46.270Z,56.8
2018-12-24T12:20:52.467Z,55.6
2018-12-24T12:21:46.203Z,55.3
2018-12-24T12:22:46.214Z,55
2018-12-24T12:23:46.202Z,54.2
2018-12-24T12:24:46.278Z,53.5
2018-12-24T12:25:46.397Z,52.2
2018-12-24T12:26:46.191Z,51.8
2018-12-24T12:27:46.283Z,51.8
2018-12-24T12:28:46.206Z,52.3
2018-12-24T12:29:46.211Z,52.7
2018-12-24T12:30:46.285Z,52.3
2018-12-24T12:31:51.689Z,4.7
2018-12-24T12:32:51.694Z,9.3
2018-12-24T12:33:51.729Z,12.9
2018-12-24T12:34:51.695Z,16.3
2018-12-24T12:35:52.950Z,19
2018-12-24T12:36:51.683Z,22.2
2018-12-24T12:37:51.711Z,25.5
2018-12-24T12:38:51.711Z,28.3
2018-12-24T12:39:51.903Z,31.4
2018-12-24T12:40:53.211Z,33.3
2018-12-24T12:41:53.336Z,35.4
2018-12-24T12:42:52.457Z,37.5
2018-12-24T12:43:52.095Z,39
2018-12-24T12:44:53.034Z,40.1
2018-12-24T12:45:52.423Z,41.3
2018-12-24T12:47:57.476Z,5.8
2018-12-24T12:48:56.863Z,10.7
2018-12-24T12:49:56.589Z,15.6
2018-12-24T12:50:56.835Z,20.1
2018-12-24T12:53:01.707Z,5.2
2018-12-24T12:54:01.453Z,10.1
2018-12-24T12:55:02.073Z,13.9
2018-12-24T12:56:00.226Z,17.5
2018-12-24T12:57:01.494Z,20.3
2018-12-24T12:58:01.387Z,22.6
2018-12-24T12:58:59.797Z,24.3
2018-12-24T13:00:02.686Z,25.8
2018-12-24T13:01:01.072Z,27.9
2018-12-24T13:02:00.933Z,29.6
2018-12-24T13:03:02.643Z,30.4
2018-12-24T13:04:00.235Z,31.3
2018-12-24T13:05:00.280Z,33.3
2018-12-24T13:06:00.349Z,36.1
2018-12-24T13:07:01.175Z,38.1
2018-12-24T13:08:01.137Z,39.8
2018-12-24T13:08:59.830Z,40.6
2018-12-24T13:10:02.144Z,42
2018-12-24T13:11:01.211Z,43
2018-12-24T13:12:02.030Z,44.6
2018-12-24T13:13:01.234Z,45.2
2018-12-24T13:14:00.742Z,46.3
2018-12-24T13:15:01.033Z,47
2018-12-24T13:15:59.912Z,46.8
2018-12-24T13:17:00.001Z,46.7
2018-12-24T13:18:01.575Z,47
2018-12-24T13:18:59.858Z,47.4
2018-12-24T13:19:59.818Z,47.8
2018-12-24T13:20:59.804Z,47.9
2018-12-24T13:22:04.220Z,47.8
2018-12-24T13:22:59.783Z,47.5
2018-12-24T13:23:59.795Z,47.5
2018-12-24T13:24:59.796Z,48.6
2018-12-24T13:25:59.801Z,49.2
2018-12-24T13:26:59.849Z,49.7
2018-12-24T13:27:59.867Z,50.3
2018-12-24T13:28:59.799Z,51.1
2018-12-24T13:29:59.801Z,52.1